sensor_id;sensor_type;location;lat;lon;timestamp;P1;durP1;ratioP1;P2;durP2;ratioP2
75864;SDS011;64510;46.704;38.274;2023-05-10T00:01:24;4.28;;;2.13;;
75864;SDS011;64510;46.704;38.274;2023-05-10T00:03:50;2.03;;;1.92;;
75864;SDS011;64510;46.704;38.274;2023-05-10T00:06:16;2.90;;;1.85;;
75864;SDS011;64510;46.704;38.274;2023-05-10T00:08:42;6.32;;;2.03;;
75864;SDS011;64510;46.704;38.274;2023-05-10T00:11:08;1.85;;;1.75;;
75864;SDS011;64510;46.704;38.274;2023-05-10T00:13:33;3.80;;;1.63;;
75864;SDS011;64510;46.704;38.274;2023-05-10T00:15:59;3.42;;;1.92;;
75864;SDS011;64510;46.704;38.274;2023-05-10T00:18:25;2.17;;;1.80;;
75864;SDS011;64510;46.704;38.274;2023-05-10T00:20:51;2.50;;;1.90;;
75864;SDS011;64510;46.704;38.274;2023-05-10T00:23:17;1.70;;;1.60;;
75864;SDS011;64510;46.704;38.274;2023-05-10T00:25:43;3.00;;;1.65;;
75864;SDS011;64510;46.704;38.274;2023-05-10T00:28:09;2.53;;;1.30;;
75864;SDS011;64510;46.704;38.274;2023-05-10T00:30:36;2.40;;;2.00;;
75864;SDS011;64510;46.704;38.274;2023-05-10T00:33:02;2.08;;;1.90;;
75864;SDS011;64510;46.704;38.274;2023-05-10T00:35:28;3.13;;;2.50;;
75864;SDS011;64510;46.704;38.274;2023-05-10T00:37:54;2.38;;;1.98;;
75864;SDS011;64510;46.704;38.274;2023-05-10T00:40:20;2.75;;;1.92;;
75864;SDS011;64510;46.704;38.274;2023-05-10T00:42:51;4.80;;;1.70;;
75864;SDS011;64510;46.704;38.274;2023-05-10T00:45:17;2.63;;;1.92;;
75864;SDS011;64510;46.704;38.274;2023-05-10T00:47:44;3.08;;;1.83;;
75864;SDS011;64510;46.704;38.274;2023-05-10T00:50:10;1.65;;;1.55;;
75864;SDS011;64510;46.704;38.274;2023-05-10T00:52:36;3.30;;;2.20;;
75864;SDS011;64510;46.704;38.274;2023-05-10T00:55:02;2.38;;;2.00;;
75864;SDS011;64510;46.704;38.274;2023-05-10T00:57:30;4.03;;;1.92;;
75864;SDS011;64510;46.704;38.274;2023-05-10T00:59:56;2.10;;;1.88;;
75864;SDS011;64510;46.704;38.274;2023-05-10T01:02:23;2.20;;;1.73;;
75864;SDS011;64510;46.704;38.274;2023-05-10T01:04:49;3.10;;;2.08;;
75864;SDS011;64510;46.704;38.274;2023-05-10T01:07:15;2.88;;;2.25;;
75864;SDS011;64510;46.704;38.274;2023-05-10T01:09:42;2.20;;;1.95;;
75864;SDS011;64510;46.704;38.274;2023-05-10T01:12:10;2.97;;;2.78;;
75864;SDS011;64510;46.704;38.274;2023-05-10T01:14:36;3.90;;;1.90;;
75864;SDS011;64510;46.704;38.274;2023-05-10T01:17:03;2.28;;;1.75;;
75864;SDS011;64510;46.704;38.274;2023-05-10T01:19:31;4.20;;;2.20;;
75864;SDS011;64510;46.704;38.274;2023-05-10T01:22:08;3.17;;;1.63;;
75864;SDS011;64510;46.704;38.274;2023-05-10T01:36:05;2.67;;;1.90;;
75864;SDS011;64510;46.704;38.274;2023-05-10T01:38:47;3.22;;;1.92;;
75864;SDS011;64510;46.704;38.274;2023-05-10T01:41:25;2.67;;;1.92;;
75864;SDS011;64510;46.704;38.274;2023-05-10T01:47:12;2.35;;;2.10;;
75864;SDS011;64510;46.704;38.274;2023-05-10T01:49:47;2.80;;;2.40;;
75864;SDS011;64510;46.704;38.274;2023-05-10T01:52:15;3.00;;;2.00;;
75864;SDS011;64510;46.704;38.274;2023-05-10T01:54:49;2.15;;;1.83;;
75864;SDS011;64510;46.704;38.274;2023-05-10T01:57:19;1.50;;;1.38;;
75864;SDS011;64510;46.704;38.274;2023-05-10T01:59:47;3.28;;;1.83;;
75864;SDS011;64510;46.704;38.274;2023-05-10T02:02:16;3.50;;;2.38;;
75864;SDS011;64510;46.704;38.274;2023-05-10T02:04:44;7.45;;;1.60;;
75864;SDS011;64510;46.704;38.274;2023-05-10T02:07:11;2.47;;;1.60;;
75864;SDS011;64510;46.704;38.274;2023-05-10T02:09:37;1.45;;;1.35;;
75864;SDS011;64510;46.704;38.274;2023-05-10T02:12:04;2.30;;;2.08;;
75864;SDS011;64510;46.704;38.274;2023-05-10T02:14:32;2.30;;;2.10;;
75864;SDS011;64510;46.704;38.274;2023-05-10T02:17:02;1.45;;;1.33;;
75864;SDS011;64510;46.704;38.274;2023-05-10T02:19:30;1.75;;;1.63;;
75864;SDS011;64510;46.704;38.274;2023-05-10T02:21:59;1.50;;;1.40;;
75864;SDS011;64510;46.704;38.274;2023-05-10T02:24:26;2.72;;;1.92;;
75864;SDS011;64510;46.704;38.274;2023-05-10T02:26:53;2.78;;;1.70;;
75864;SDS011;64510;46.704;38.274;2023-05-10T02:29:26;1.98;;;1.77;;
75864;SDS011;64510;46.704;38.274;2023-05-10T02:31:54;1.30;;;1.20;;
75864;SDS011;64510;46.704;38.274;2023-05-10T02:34:21;2.83;;;2.00;;
75864;SDS011;64510;46.704;38.274;2023-05-10T02:36:48;2.20;;;2.00;;
75864;SDS011;64510;46.704;38.274;2023-05-10T02:39:16;1.95;;;1.65;;
75864;SDS011;64510;46.704;38.274;2023-05-10T02:41:44;1.65;;;1.55;;
75864;SDS011;64510;46.704;38.274;2023-05-10T02:44:12;3.05;;;2.72;;
75864;SDS011;64510;46.704;38.274;2023-05-10T02:46:41;3.67;;;2.35;;
75864;SDS011;64510;46.704;38.274;2023-05-10T02:49:07;5.03;;;1.58;;
75864;SDS011;64510;46.704;38.274;2023-05-10T02:51:34;2.17;;;1.70;;
75864;SDS011;64510;46.704;38.274;2023-05-10T02:54:10;1.73;;;1.63;;
75864;SDS011;64510;46.704;38.274;2023-05-10T02:56:40;2.03;;;1.92;;
75864;SDS011;64510;46.704;38.274;2023-05-10T02:59:12;1.45;;;1.35;;
75864;SDS011;64510;46.704;38.274;2023-05-10T03:01:38;2.13;;;1.90;;
75864;SDS011;64510;46.704;38.274;2023-05-10T03:04:05;1.77;;;1.67;;
75864;SDS011;64510;46.704;38.274;2023-05-10T03:06:31;1.95;;;1.58;;
75864;SDS011;64510;46.704;38.274;2023-05-10T03:08:58;2.67;;;1.83;;
75864;SDS011;64510;46.704;38.274;2023-05-10T03:22:04;4.47;;;1.40;;
75864;SDS011;64510;46.704;38.274;2023-05-10T03:24:36;1.65;;;1.45;;
75864;SDS011;64510;46.704;38.274;2023-05-10T03:27:04;2.75;;;1.30;;
75864;SDS011;64510;46.704;38.274;2023-05-10T03:29:31;1.88;;;1.42;;
75864;SDS011;64510;46.704;38.274;2023-05-10T03:31:58;14.32;;;2.47;;
75864;SDS011;64510;46.704;38.274;2023-05-10T03:34:25;3.83;;;1.83;;
75864;SDS011;64510;46.704;38.274;2023-05-10T03:36:51;4.47;;;1.70;;
75864;SDS011;64510;46.704;38.274;2023-05-10T03:39:17;2.35;;;1.58;;
75864;SDS011;64510;46.704;38.274;2023-05-10T03:41:49;3.33;;;1.85;;
75864;SDS011;64510;46.704;38.274;2023-05-10T03:44:15;2.88;;;1.77;;
75864;SDS011;64510;46.704;38.274;2023-05-10T03:46:41;2.75;;;2.00;;
75864;SDS011;64510;46.704;38.274;2023-05-10T03:49:07;7.22;;;1.98;;
75864;SDS011;64510;46.704;38.274;2023-05-10T03:51:35;3.25;;;2.13;;
75864;SDS011;64510;46.704;38.274;2023-05-10T03:54:00;2.55;;;1.90;;
75864;SDS011;64510;46.704;38.274;2023-05-10T03:56:26;2.85;;;2.10;;
75864;SDS011;64510;46.704;38.274;2023-05-10T03:58:52;3.30;;;2.10;;
75864;SDS011;64510;46.704;38.274;2023-05-10T04:01:18;1.88;;;1.75;;
75864;SDS011;64510;46.704;38.274;2023-05-10T04:03:45;4.15;;;2.00;;
75864;SDS011;64510;46.704;38.274;2023-05-10T04:06:11;1.80;;;1.40;;
75864;SDS011;64510;46.704;38.274;2023-05-10T04:08:37;1.67;;;1.45;;
75864;SDS011;64510;46.704;38.274;2023-05-10T04:11:06;2.42;;;2.08;;
75864;SDS011;64510;46.704;38.274;2023-05-10T04:13:33;1.60;;;1.50;;
75864;SDS011;64510;46.704;38.274;2023-05-10T04:15:59;2.63;;;1.73;;
75864;SDS011;64510;46.704;38.274;2023-05-10T04:18:25;1.90;;;1.75;;
75864;SDS011;64510;46.704;38.274;2023-05-10T04:20:51;3.72;;;1.92;;
75864;SDS011;64510;46.704;38.274;2023-05-10T04:23:17;3.47;;;1.83;;
75864;SDS011;64510;46.704;38.274;2023-05-10T04:25:43;3.08;;;1.95;;
75864;SDS011;64510;46.704;38.274;2023-05-10T04:28:09;4.82;;;2.08;;
75864;SDS011;64510;46.704;38.274;2023-05-10T04:30:35;2.08;;;1.17;;
75864;SDS011;64510;46.704;38.274;2023-05-10T04:33:01;2.72;;;1.25;;
75864;SDS011;64510;46.704;38.274;2023-05-10T04:35:30;2.30;;;2.10;;
75864;SDS011;64510;46.704;38.274;2023-05-10T04:37:55;2.90;;;1.75;;
75864;SDS011;64510;46.704;38.274;2023-05-10T04:40:21;3.70;;;2.22;;
75864;SDS011;64510;46.704;38.274;2023-05-10T04:42:47;2.28;;;2.03;;
75864;SDS011;64510;46.704;38.274;2023-05-10T04:45:13;1.75;;;1.50;;
75864;SDS011;64510;46.704;38.274;2023-05-10T04:47:42;3.63;;;1.38;;
75864;SDS011;64510;46.704;38.274;2023-05-10T04:50:08;3.65;;;1.77;;
75864;SDS011;64510;46.704;38.274;2023-05-10T04:52:34;2.00;;;1.77;;
75864;SDS011;64510;46.704;38.274;2023-05-10T04:55:00;3.63;;;2.20;;
75864;SDS011;64510;46.704;38.274;2023-05-10T04:57:25;2.08;;;1.88;;
75864;SDS011;64510;46.704;38.274;2023-05-10T04:59:51;2.00;;;1.80;;
75864;SDS011;64510;46.704;38.274;2023-05-10T05:02:17;2.95;;;1.52;;
75864;SDS011;64510;46.704;38.274;2023-05-10T05:04:43;1.52;;;1.08;;
75864;SDS011;64510;46.704;38.274;2023-05-10T05:07:09;1.98;;;1.33;;
75864;SDS011;64510;46.704;38.274;2023-05-10T05:09:35;2.83;;;1.77;;
75864;SDS011;64510;46.704;38.274;2023-05-10T05:12:01;1.88;;;1.77;;
75864;SDS011;64510;46.704;38.274;2023-05-10T05:14:27;2.42;;;1.70;;
75864;SDS011;64510;46.704;38.274;2023-05-10T05:16:53;2.85;;;1.67;;
75864;SDS011;64510;46.704;38.274;2023-05-10T05:19:19;2.05;;;1.60;;
75864;SDS011;64510;46.704;38.274;2023-05-10T05:21:45;1.88;;;1.70;;
75864;SDS011;64510;46.704;38.274;2023-05-10T05:24:11;2.08;;;1.75;;
75864;SDS011;64510;46.704;38.274;2023-05-10T05:26:38;1.98;;;1.52;;
75864;SDS011;64510;46.704;38.274;2023-05-10T05:29:04;1.77;;;1.55;;
75864;SDS011;64510;46.704;38.274;2023-05-10T05:31:29;2.17;;;1.95;;
75864;SDS011;64510;46.704;38.274;2023-05-10T05:33:55;2.95;;;1.80;;
75864;SDS011;64510;46.704;38.274;2023-05-10T05:36:21;1.58;;;1.48;;
75864;SDS011;64510;46.704;38.274;2023-05-10T05:38:47;2.10;;;1.52;;
75864;SDS011;64510;46.704;38.274;2023-05-10T05:41:13;2.65;;;1.42;;
75864;SDS011;64510;46.704;38.274;2023-05-10T05:43:39;1.55;;;1.40;;
75864;SDS011;64510;46.704;38.274;2023-05-10T05:46:05;1.30;;;1.20;;
75864;SDS011;64510;46.704;38.274;2023-05-10T05:48:31;1.75;;;1.65;;
75864;SDS011;64510;46.704;38.274;2023-05-10T05:50:57;3.50;;;1.60;;
75864;SDS011;64510;46.704;38.274;2023-05-10T05:53:23;1.50;;;1.40;;
75864;SDS011;64510;46.704;38.274;2023-05-10T05:55:56;2.55;;;1.67;;
75864;SDS011;64510;46.704;38.274;2023-05-10T05:58:23;5.30;;;1.95;;
75864;SDS011;64510;46.704;38.274;2023-05-10T06:00:50;1.83;;;1.40;;
75864;SDS011;64510;46.704;38.274;2023-05-10T06:03:17;1.67;;;1.58;;
75864;SDS011;64510;46.704;38.274;2023-05-10T06:05:43;1.48;;;1.38;;
75864;SDS011;64510;46.704;38.274;2023-05-10T06:08:09;1.90;;;1.75;;
75864;SDS011;64510;46.704;38.274;2023-05-10T06:10:36;3.05;;;1.60;;
75864;SDS011;64510;46.704;38.274;2023-05-10T06:13:02;1.40;;;1.30;;
75864;SDS011;64510;46.704;38.274;2023-05-10T06:15:28;1.30;;;1.20;;
75864;SDS011;64510;46.704;38.274;2023-05-10T06:17:54;2.13;;;1.85;;
75864;SDS011;64510;46.704;38.274;2023-05-10T06:20:20;6.00;;;1.73;;
75864;SDS011;64510;46.704;38.274;2023-05-10T06:22:45;1.10;;;1.10;;
75864;SDS011;64510;46.704;38.274;2023-05-10T06:25:11;3.42;;;2.00;;
75864;SDS011;64510;46.704;38.274;2023-05-10T06:27:37;1.83;;;1.58;;
75864;SDS011;64510;46.704;38.274;2023-05-10T06:30:04;2.03;;;1.50;;
75864;SDS011;64510;46.704;38.274;2023-05-10T06:32:30;1.13;;;1.13;;
75864;SDS011;64510;46.704;38.274;2023-05-10T06:34:56;1.33;;;1.20;;
75864;SDS011;64510;46.704;38.274;2023-05-10T06:37:22;1.80;;;1.27;;
75864;SDS011;64510;46.704;38.274;2023-05-10T06:39:48;1.77;;;1.08;;
75864;SDS011;64510;46.704;38.274;2023-05-10T06:42:14;2.03;;;1.30;;
75864;SDS011;64510;46.704;38.274;2023-05-10T06:44:40;1.73;;;1.45;;
75864;SDS011;64510;46.704;38.274;2023-05-10T06:47:06;4.20;;;1.52;;
75864;SDS011;64510;46.704;38.274;2023-05-10T06:49:31;1.20;;;1.17;;
75864;SDS011;64510;46.704;38.274;2023-05-10T06:51:57;2.33;;;1.80;;
75864;SDS011;64510;46.704;38.274;2023-05-10T06:54:23;2.20;;;2.00;;
75864;SDS011;64510;46.704;38.274;2023-05-10T06:56:49;4.07;;;1.30;;
75864;SDS011;64510;46.704;38.274;2023-05-10T06:59:15;3.35;;;1.88;;
75864;SDS011;64510;46.704;38.274;2023-05-10T07:01:42;2.53;;;1.73;;
75864;SDS011;64510;46.704;38.274;2023-05-10T07:04:08;5.90;;;1.98;;
75864;SDS011;64510;46.704;38.274;2023-05-10T07:06:33;1.88;;;1.50;;
75864;SDS011;64510;46.704;38.274;2023-05-10T07:09:00;2.22;;;1.60;;
75864;SDS011;64510;46.704;38.274;2023-05-10T07:11:26;5.28;;;1.65;;
75864;SDS011;64510;46.704;38.274;2023-05-10T07:13:52;1.65;;;1.55;;
75864;SDS011;64510;46.704;38.274;2023-05-10T07:16:18;1.60;;;1.40;;
75864;SDS011;64510;46.704;38.274;2023-05-10T07:18:44;0.90;;;0.90;;
75864;SDS011;64510;46.704;38.274;2023-05-10T07:21:09;3.95;;;1.40;;
75864;SDS011;64510;46.704;38.274;2023-05-10T07:23:35;3.70;;;1.25;;
75864;SDS011;64510;46.704;38.274;2023-05-10T07:26:01;3.83;;;1.75;;
75864;SDS011;64510;46.704;38.274;2023-05-10T07:28:27;1.38;;;1.27;;
75864;SDS011;64510;46.704;38.274;2023-05-10T07:30:53;1.65;;;1.42;;
75864;SDS011;64510;46.704;38.274;2023-05-10T07:33:19;1.70;;;1.60;;
75864;SDS011;64510;46.704;38.274;2023-05-10T07:35:45;1.23;;;1.02;;
75864;SDS011;64510;46.704;38.274;2023-05-10T07:38:11;3.88;;;1.95;;
75864;SDS011;64510;46.704;38.274;2023-05-10T07:40:39;1.48;;;1.38;;
75864;SDS011;64510;46.704;38.274;2023-05-10T07:43:05;1.20;;;1.10;;
75864;SDS011;64510;46.704;38.274;2023-05-10T07:45:31;1.98;;;1.77;;
75864;SDS011;64510;46.704;38.274;2023-05-10T07:47:57;1.77;;;1.40;;
75864;SDS011;64510;46.704;38.274;2023-05-10T07:50:22;4.55;;;1.63;;
75864;SDS011;64510;46.704;38.274;2023-05-10T07:52:48;1.27;;;1.17;;
75864;SDS011;64510;46.704;38.274;2023-05-10T07:55:14;1.42;;;1.08;;
75864;SDS011;64510;46.704;38.274;2023-05-10T07:57:41;1.35;;;1.25;;
75864;SDS011;64510;46.704;38.274;2023-05-10T08:00:07;1.10;;;1.10;;
75864;SDS011;64510;46.704;38.274;2023-05-10T08:02:40;3.30;;;1.27;;
75864;SDS011;64510;46.704;38.274;2023-05-10T08:05:06;2.65;;;1.58;;
75864;SDS011;64510;46.704;38.274;2023-05-10T08:07:33;2.05;;;1.48;;
75864;SDS011;64510;46.704;38.274;2023-05-10T08:09:59;1.92;;;1.08;;
75864;SDS011;64510;46.704;38.274;2023-05-10T08:12:25;1.75;;;1.65;;
75864;SDS011;64510;46.704;38.274;2023-05-10T08:14:51;2.35;;;1.40;;
75864;SDS011;64510;46.704;38.274;2023-05-10T08:17:17;1.10;;;1.00;;
75864;SDS011;64510;46.704;38.274;2023-05-10T08:19:43;2.42;;;1.50;;
75864;SDS011;64510;46.704;38.274;2023-05-10T08:22:08;2.45;;;1.60;;
75864;SDS011;64510;46.704;38.274;2023-05-10T08:24:35;1.58;;;1.48;;
75864;SDS011;64510;46.704;38.274;2023-05-10T08:27:06;0.70;;;0.70;;
75864;SDS011;64510;46.704;38.274;2023-05-10T08:29:32;2.90;;;1.60;;
75864;SDS011;64510;46.704;38.274;2023-05-10T08:31:58;4.97;;;1.80;;
75864;SDS011;64510;46.704;38.274;2023-05-10T08:34:24;1.20;;;1.10;;
75864;SDS011;64510;46.704;38.274;2023-05-10T08:36:50;1.88;;;1.73;;
75864;SDS011;64510;46.704;38.274;2023-05-10T08:39:16;1.55;;;1.08;;
75864;SDS011;64510;46.704;38.274;2023-05-10T08:41:42;2.50;;;1.20;;
75864;SDS011;64510;46.704;38.274;2023-05-10T08:44:10;1.75;;;1.30;;
75864;SDS011;64510;46.704;38.274;2023-05-10T08:46:36;1.85;;;1.50;;
75864;SDS011;64510;46.704;38.274;2023-05-10T08:49:06;1.17;;;0.88;;
75864;SDS011;64510;46.704;38.274;2023-05-10T08:51:36;2.17;;;1.17;;
75864;SDS011;64510;46.704;38.274;2023-05-10T08:54:05;0.70;;;0.70;;
75864;SDS011;64510;46.704;38.274;2023-05-10T08:56:31;4.88;;;1.20;;
75864;SDS011;64510;46.704;38.274;2023-05-10T08:58:57;3.15;;;1.48;;
75864;SDS011;64510;46.704;38.274;2023-05-10T09:01:24;1.20;;;1.02;;
75864;SDS011;64510;46.704;38.274;2023-05-10T09:03:50;1.40;;;1.30;;
75864;SDS011;64510;46.704;38.274;2023-05-10T09:06:16;1.88;;;1.13;;
75864;SDS011;64510;46.704;38.274;2023-05-10T09:08:42;0.80;;;0.80;;
75864;SDS011;64510;46.704;38.274;2023-05-10T09:11:09;1.10;;;1.10;;
75864;SDS011;64510;46.704;38.274;2023-05-10T09:13:36;6.22;;;1.33;;
75864;SDS011;64510;46.704;38.274;2023-05-10T09:16:03;3.45;;;1.88;;
75864;SDS011;64510;46.704;38.274;2023-05-10T09:18:29;2.78;;;1.25;;
75864;SDS011;64510;46.704;38.274;2023-05-10T09:20:56;2.03;;;1.00;;
75864;SDS011;64510;46.704;38.274;2023-05-10T09:23:22;1.45;;;1.10;;
75864;SDS011;64510;46.704;38.274;2023-05-10T09:25:54;1.45;;;1.33;;
75864;SDS011;64510;46.704;38.274;2023-05-10T09:28:31;2.47;;;0.75;;
75864;SDS011;64510;46.704;38.274;2023-05-10T09:30:57;1.85;;;1.60;;
75864;SDS011;64510;46.704;38.274;2023-05-10T09:33:23;1.42;;;1.33;;
75864;SDS011;64510;46.704;38.274;2023-05-10T09:35:50;1.55;;;1.27;;
75864;SDS011;64510;46.704;38.274;2023-05-10T09:38:17;1.35;;;0.95;;
75864;SDS011;64510;46.704;38.274;2023-05-10T09:40:43;1.67;;;1.17;;
75864;SDS011;64510;46.704;38.274;2023-05-10T09:43:20;2.15;;;1.85;;
75864;SDS011;64510;46.704;38.274;2023-05-10T09:45:47;3.15;;;1.65;;
75864;SDS011;64510;46.704;38.274;2023-05-10T09:48:15;3.42;;;1.98;;
75864;SDS011;64510;46.704;38.274;2023-05-10T09:50:41;1.02;;;0.93;;
75864;SDS011;64510;46.704;38.274;2023-05-10T09:53:07;1.33;;;1.13;;
75864;SDS011;64510;46.704;38.274;2023-05-10T09:58:05;5.88;;;1.88;;
75864;SDS011;64510;46.704;38.274;2023-05-10T10:00:39;1.65;;;1.55;;
75864;SDS011;64510;46.704;38.274;2023-05-10T10:05:36;1.65;;;1.10;;
75864;SDS011;64510;46.704;38.274;2023-05-10T10:08:06;0.63;;;0.63;;
75864;SDS011;64510;46.704;38.274;2023-05-10T10:10:32;8.63;;;1.98;;
75864;SDS011;64510;46.704;38.274;2023-05-10T10:12:59;4.03;;;1.38;;
75864;SDS011;64510;46.704;38.274;2023-05-10T10:15:25;4.72;;;1.55;;
75864;SDS011;64510;46.704;38.274;2023-05-10T10:17:52;0.88;;;0.88;;
75864;SDS011;64510;46.704;38.274;2023-05-10T10:20:19;1.67;;;1.52;;
75864;SDS011;64510;46.704;38.274;2023-05-10T10:22:46;1.75;;;1.33;;
75864;SDS011;64510;46.704;38.274;2023-05-10T10:25:13;2.13;;;1.08;;
75864;SDS011;64510;46.704;38.274;2023-05-10T10:35:37;1.27;;;0.98;;
75864;SDS011;64510;46.704;38.274;2023-05-10T10:38:04;2.35;;;1.33;;
75864;SDS011;64510;46.704;38.274;2023-05-10T10:40:33;2.25;;;2.00;;
75864;SDS011;64510;46.704;38.274;2023-05-10T10:48:50;2.08;;;1.88;;
75864;SDS011;64510;46.704;38.274;2023-05-10T10:51:38;1.00;;;1.00;;
75864;SDS011;64510;46.704;38.274;2023-05-10T10:54:11;1.75;;;1.65;;
75864;SDS011;64510;46.704;38.274;2023-05-10T10:56:37;1.42;;;1.33;;
75864;SDS011;64510;46.704;38.274;2023-05-10T10:59:03;2.47;;;1.55;;
75864;SDS011;64510;46.704;38.274;2023-05-10T11:01:33;1.02;;;1.02;;
75864;SDS011;64510;46.704;38.274;2023-05-10T11:06:29;2.13;;;1.60;;
75864;SDS011;64510;46.704;38.274;2023-05-10T11:08:56;1.67;;;1.42;;
75864;SDS011;64510;46.704;38.274;2023-05-10T11:11:22;5.25;;;1.45;;
75864;SDS011;64510;46.704;38.274;2023-05-10T11:13:49;6.15;;;1.63;;
75864;SDS011;64510;46.704;38.274;2023-05-10T11:18:52;2.25;;;1.35;;
75864;SDS011;64510;46.704;38.274;2023-05-10T11:21:18;2.10;;;1.50;;
75864;SDS011;64510;46.704;38.274;2023-05-10T11:26:14;2.10;;;1.48;;
75864;SDS011;64510;46.704;38.274;2023-05-10T11:28:47;1.80;;;1.52;;
75864;SDS011;64510;46.704;38.274;2023-05-10T11:31:17;2.00;;;1.70;;
75864;SDS011;64510;46.704;38.274;2023-05-10T11:33:44;1.13;;;1.10;;
75864;SDS011;64510;46.704;38.274;2023-05-10T11:36:18;1.20;;;1.02;;
75864;SDS011;64510;46.704;38.274;2023-05-10T11:38:45;1.55;;;1.45;;
75864;SDS011;64510;46.704;38.274;2023-05-10T11:41:12;1.35;;;1.23;;
75864;SDS011;64510;46.704;38.274;2023-05-10T11:43:39;1.40;;;1.30;;
75864;SDS011;64510;46.704;38.274;2023-05-10T11:46:06;2.08;;;1.48;;
75864;SDS011;64510;46.704;38.274;2023-05-10T11:48:36;1.75;;;1.38;;
75864;SDS011;64510;46.704;38.274;2023-05-10T11:51:04;1.88;;;1.77;;
75864;SDS011;64510;46.704;38.274;2023-05-10T11:53:31;4.40;;;2.38;;
75864;SDS011;64510;46.704;38.274;2023-05-10T11:58:30;4.10;;;2.10;;
75864;SDS011;64510;46.704;38.274;2023-05-10T12:00:58;2.85;;;2.13;;
75864;SDS011;64510;46.704;38.274;2023-05-10T12:03:25;5.32;;;2.78;;
75864;SDS011;64510;46.704;38.274;2023-05-10T12:05:52;7.75;;;3.20;;
75864;SDS011;64510;46.704;38.274;2023-05-10T12:08:21;2.28;;;1.70;;
75864;SDS011;64510;46.704;38.274;2023-05-10T12:10:48;2.97;;;2.20;;
75864;SDS011;64510;46.704;38.274;2023-05-10T12:13:15;2.85;;;1.90;;
75864;SDS011;64510;46.704;38.274;2023-05-10T12:15:41;2.28;;;1.40;;
75864;SDS011;64510;46.704;38.274;2023-05-10T12:18:09;4.80;;;2.95;;
75864;SDS011;64510;46.704;38.274;2023-05-10T12:20:35;3.40;;;2.47;;
75864;SDS011;64510;46.704;38.274;2023-05-10T12:23:02;4.72;;;2.08;;
75864;SDS011;64510;46.704;38.274;2023-05-10T12:25:33;1.98;;;1.80;;
75864;SDS011;64510;46.704;38.274;2023-05-10T12:28:02;3.45;;;2.53;;
75864;SDS011;64510;46.704;38.274;2023-05-10T12:30:30;2.55;;;1.92;;
75864;SDS011;64510;46.704;38.274;2023-05-10T12:33:01;1.30;;;1.25;;
75864;SDS011;64510;46.704;38.274;2023-05-10T12:35:32;1.27;;;1.17;;
75864;SDS011;64510;46.704;38.274;2023-05-10T12:37:59;2.50;;;2.03;;
75864;SDS011;64510;46.704;38.274;2023-05-10T12:40:25;1.95;;;1.73;;
75864;SDS011;64510;46.704;38.274;2023-05-10T12:42:51;1.52;;;1.23;;
75864;SDS011;64510;46.704;38.274;2023-05-10T12:45:17;4.70;;;2.05;;
75864;SDS011;64510;46.704;38.274;2023-05-10T12:47:43;2.65;;;1.75;;
75864;SDS011;64510;46.704;38.274;2023-05-10T12:50:09;2.88;;;1.33;;
75864;SDS011;64510;46.704;38.274;2023-05-10T12:52:36;2.85;;;2.25;;
75864;SDS011;64510;46.704;38.274;2023-05-10T12:55:02;1.40;;;1.30;;
75864;SDS011;64510;46.704;38.274;2023-05-10T12:57:28;2.55;;;1.80;;
75864;SDS011;64510;46.704;38.274;2023-05-10T12:59:54;1.73;;;1.63;;
75864;SDS011;64510;46.704;38.274;2023-05-10T13:02:20;1.73;;;1.63;;
75864;SDS011;64510;46.704;38.274;2023-05-10T13:04:48;1.85;;;1.65;;
75864;SDS011;64510;46.704;38.274;2023-05-10T13:07:14;3.42;;;1.90;;
75864;SDS011;64510;46.704;38.274;2023-05-10T13:09:40;2.50;;;1.48;;
75864;SDS011;64510;46.704;38.274;2023-05-10T13:12:06;1.58;;;1.48;;
75864;SDS011;64510;46.704;38.274;2023-05-10T13:14:32;2.22;;;1.20;;
75864;SDS011;64510;46.704;38.274;2023-05-10T13:16:58;1.50;;;1.40;;
75864;SDS011;64510;46.704;38.274;2023-05-10T13:19:24;6.28;;;1.55;;
75864;SDS011;64510;46.704;38.274;2023-05-10T13:21:50;4.63;;;2.40;;
75864;SDS011;64510;46.704;38.274;2023-05-10T13:24:16;2.03;;;1.83;;
75864;SDS011;64510;46.704;38.274;2023-05-10T13:26:42;4.53;;;2.10;;
75864;SDS011;64510;46.704;38.274;2023-05-10T13:29:09;2.90;;;1.63;;
75864;SDS011;64510;46.704;38.274;2023-05-10T13:31:35;2.28;;;1.75;;
75864;SDS011;64510;46.704;38.274;2023-05-10T13:34:01;2.17;;;1.90;;
75864;SDS011;64510;46.704;38.274;2023-05-10T13:36:27;3.33;;;1.40;;
75864;SDS011;64510;46.704;38.274;2023-05-10T13:38:53;1.90;;;1.40;;
75864;SDS011;64510;46.704;38.274;2023-05-10T13:41:19;6.43;;;1.85;;
75864;SDS011;64510;46.704;38.274;2023-05-10T13:43:46;2.15;;;1.63;;
75864;SDS011;64510;46.704;38.274;2023-05-10T13:46:13;2.20;;;1.90;;
75864;SDS011;64510;46.704;38.274;2023-05-10T13:48:39;1.98;;;1.35;;
75864;SDS011;64510;46.704;38.274;2023-05-10T13:51:05;2.17;;;1.98;;
75864;SDS011;64510;46.704;38.274;2023-05-10T13:53:31;1.98;;;1.73;;
75864;SDS011;64510;46.704;38.274;2023-05-10T13:55:57;3.30;;;1.80;;
75864;SDS011;64510;46.704;38.274;2023-05-10T13:58:23;2.53;;;1.40;;
75864;SDS011;64510;46.704;38.274;2023-05-10T14:00:49;3.35;;;2.25;;
75864;SDS011;64510;46.704;38.274;2023-05-10T14:03:15;2.85;;;1.83;;
75864;SDS011;64510;46.704;38.274;2023-05-10T14:05:41;3.15;;;2.28;;
75864;SDS011;64510;46.704;38.274;2023-05-10T14:08:07;1.75;;;1.45;;
75864;SDS011;64510;46.704;38.274;2023-05-10T14:10:34;2.58;;;2.35;;
75864;SDS011;64510;46.704;38.274;2023-05-10T14:13:00;1.50;;;1.40;;
75864;SDS011;64510;46.704;38.274;2023-05-10T14:15:26;2.20;;;1.83;;
75864;SDS011;64510;46.704;38.274;2023-05-10T14:17:52;2.95;;;2.55;;
75864;SDS011;64510;46.704;38.274;2023-05-10T14:20:18;2.83;;;2.00;;
75864;SDS011;64510;46.704;38.274;2023-05-10T14:22:44;2.92;;;2.30;;
75864;SDS011;64510;46.704;38.274;2023-05-10T14:25:10;1.55;;;1.45;;
75864;SDS011;64510;46.704;38.274;2023-05-10T14:27:36;1.98;;;1.88;;
75864;SDS011;64510;46.704;38.274;2023-05-10T14:30:02;6.20;;;1.95;;
75864;SDS011;64510;46.704;38.274;2023-05-10T14:32:28;3.20;;;1.92;;
75864;SDS011;64510;46.704;38.274;2023-05-10T14:34:54;2.40;;;2.15;;
75864;SDS011;64510;46.704;38.274;2023-05-10T14:37:20;2.92;;;2.30;;
75864;SDS011;64510;46.704;38.274;2023-05-10T14:39:46;2.50;;;2.30;;
75864;SDS011;64510;46.704;38.274;2023-05-10T14:42:12;5.45;;;3.45;;
75864;SDS011;64510;46.704;38.274;2023-05-10T14:44:38;3.28;;;2.97;;
75864;SDS011;64510;46.704;38.274;2023-05-10T14:47:04;3.42;;;2.17;;
75864;SDS011;64510;46.704;38.274;2023-05-10T14:49:30;3.60;;;3.20;;
75864;SDS011;64510;46.704;38.274;2023-05-10T14:51:56;3.80;;;2.75;;
75864;SDS011;64510;46.704;38.274;2023-05-10T14:54:22;3.78;;;3.13;;
75864;SDS011;64510;46.704;38.274;2023-05-10T14:56:48;5.03;;;3.60;;
75864;SDS011;64510;46.704;38.274;2023-05-10T14:59:15;4.43;;;3.92;;
75864;SDS011;64510;46.704;38.274;2023-05-10T15:01:41;4.38;;;2.92;;
75864;SDS011;64510;46.704;38.274;2023-05-10T15:04:07;7.93;;;4.57;;
75864;SDS011;64510;46.704;38.274;2023-05-10T15:06:33;5.55;;;3.97;;
75864;SDS011;64510;46.704;38.274;2023-05-10T15:09:00;6.78;;;3.85;;
75864;SDS011;64510;46.704;38.274;2023-05-10T15:11:28;7.00;;;4.50;;
75864;SDS011;64510;46.704;38.274;2023-05-10T15:13:54;7.45;;;4.85;;
75864;SDS011;64510;46.704;38.274;2023-05-10T15:16:20;15.13;;;7.18;;
75864;SDS011;64510;46.704;38.274;2023-05-10T15:18:46;4.43;;;3.72;;
75864;SDS011;64510;46.704;38.274;2023-05-10T15:21:13;11.52;;;5.93;;
75864;SDS011;64510;46.704;38.274;2023-05-10T15:23:39;9.88;;;6.63;;
75864;SDS011;64510;46.704;38.274;2023-05-10T15:26:05;11.80;;;6.55;;